This is the latest recevied weather packets stored in our database for station/object KB9MLJ. If no packets are shown the sender has not sent any weather packets the latest 10 day(s).
| Time | Temp. | Humidity | Pressure | Rain* | Wind** | Luminosity | Snow |
|---|---|---|---|---|---|---|---|
| 1777332945 | 18.33° C | 85% | 1003.3 hPa | 0 mm | - | 2 W/m² | - |
| 1777332643 | 18.33° C | 85% | 1002.6 hPa | 0 mm | - | 7 W/m² | - |
| 1777332339 | 18.33° C | 85% | 1002.3 hPa | 0 mm | - | 12 W/m² | - |
| 1777332036 | 18.33° C | 85% | 1002 hPa | 0 mm | - | 14 W/m² | - |
| 1777331734 | 18.89° C | 84% | 1002.3 hPa | 0 mm | - | 14 W/m² | - |
| 1777331430 | 18.89° C | 83% | 1002.3 hPa | 0 mm | - | 37 W/m² | - |
| 1777331128 | 18.89° C | 83% | 1002.6 hPa | 0 mm | - | 54 W/m² | - |
| 1777330825 | 18.89° C | 83% | 1002.6 hPa | 0 mm | - | 61 W/m² | - |
| 1777330521 | 18.89° C | 82% | 1002.6 hPa | 0 mm | - | 62 W/m² | - |
| 1777330219 | 19.44° C | 81% | 1003 hPa | 0 mm | - | 49 W/m² | - |
| 1777329917 | 19.44° C | 81% | 1002.6 hPa | 0 mm | - | 72 W/m² | - |
| 1777329616 | 19.44° C | 82% | 1003 hPa | 0 mm | - | 75 W/m² | - |
| 1777329314 | 19.44° C | 82% | 1003.7 hPa | 0 mm | - | 52 W/m² | - |
| 1777329010 | 19.44° C | 82% | 1003.3 hPa | 0 mm | - | 67 W/m² | - |
| 1777328709 | 19.44° C | 85% | 1003.3 hPa | 0 mm | - | 97 W/m² | - |
| 1777328406 | 18.89° C | 87% | 1003 hPa | 0 mm | - | 126 W/m² | - |
| 1777328104 | 18.89° C | 88% | 1003.3 hPa | 0 mm | - | 120 W/m² | - |
| 1777327802 | 18.89° C | 87% | 1003 hPa | 0 mm | - | 121 W/m² | - |
| 1777327499 | 18.89° C | 87% | 1002.6 hPa | 0 mm | - | 136 W/m² | - |
| 1777327197 | 18.89° C | 87% | 1003 hPa | 0 mm | - | 137 W/m² | - |
| 1777326894 | 18.89° C | 87% | 1003 hPa | 0 mm | - | 147 W/m² | - |
| 1777326590 | 18.89° C | 87% | 1002.6 hPa | 0 mm | - | 160 W/m² | - |
| 1777326288 | 18.89° C | 86% | 1003 hPa | 0 mm | - | 168 W/m² | - |
| 1777325985 | 18.89° C | 86% | 1003 hPa | 0 mm | - | 173 W/m² | - |
| 1777325683 | 18.89° C | 85% | 1003 hPa | 0 mm | - | 186 W/m² | - |
* Rain latest hour (hover to see other rain measurements)
** Current wind speed in m/s (hover to see current wind gust speed)